Time;durP1;ratioP1;P1;durP2;ratioP2;P2;SDS_P1;SDS_P2;PMS_P1;PMS_P2;Temp;Humidity;BMP_temperature;BMP_pressure;BME280_temperature;BME280_humidity;BME280_pressure;Samples;Min_cycle;Max_cycle;Signal;HPM_P1;HPM_P2
2021/03/17 00:02:11;;;;;;;2.23;2.00;;;;;;;;;;6346437;22;19999;-76
2021/03/17 00:04:37;;;;;;;2.80;2.50;;;;;;;;;;6367620;22;19990;-77
2021/03/17 00:07:04;;;;;;;6.13;2.00;;;;;;;;;;6356520;22;20432;-77
2021/03/17 00:09:30;;;;;;;3.47;2.30;;;;;;;;;;6378489;22;19999;-76
2021/03/17 00:11:56;;;;;;;4.67;2.47;;;;;;;;;;6390632;22;20007;-76
2021/03/17 00:14:22;;;;;;;4.60;2.57;;;;;;;;;;6378088;22;20006;-77
2021/03/17 00:16:48;;;;;;;5.30;2.70;;;;;;;;;;6357108;22;20069;-76
2021/03/17 00:19:14;;;;;;;5.57;3.17;;;;;;;;;;6363013;22;20003;-75
2021/03/17 00:21:40;;;;;;;4.07;3.27;;;;;;;;;;6354583;22;20317;-76
2021/03/17 00:24:08;;;;;;;4.00;3.60;;;;;;;;;;6361728;22;19990;-77
2021/03/17 00:26:34;;;;;;;4.60;3.83;;;;;;;;;;6383804;22;20018;-76
2021/03/17 00:29:00;;;;;;;5.67;3.60;;;;;;;;;;6373241;22;20014;-76
2021/03/17 00:31:26;;;;;;;3.37;3.07;;;;;;;;;;6363040;22;20022;-77
2021/03/17 00:33:52;;;;;;;5.73;4.70;;;;;;;;;;6382188;22;20025;-77
2021/03/17 00:36:18;;;;;;;4.80;4.30;;;;;;;;;;6349817;22;20075;-77
2021/03/17 00:38:44;;;;;;;4.93;4.23;;;;;;;;;;6391804;22;20032;-77
2021/03/17 00:41:11;;;;;;;4.20;3.70;;;;;;;;;;6349313;22;19995;-77
2021/03/17 00:43:37;;;;;;;6.13;4.27;;;;;;;;;;6354322;22;20003;-77
2021/03/17 00:46:03;;;;;;;6.00;5.00;;;;;;;;;;6390741;22;20007;-77
2021/03/17 00:48:29;;;;;;;6.30;4.93;;;;;;;;;;6374197;22;20006;-78
2021/03/17 00:50:55;;;;;;;7.33;4.10;;;;;;;;;;6357392;22;19999;-77
2021/03/17 00:53:21;;;;;;;5.93;3.97;;;;;;;;;;6355588;22;20387;-77
2021/03/17 00:55:47;;;;;;;7.23;3.80;;;;;;;;;;6346974;22;20035;-76
2021/03/17 00:58:13;;;;;;;7.50;3.33;;;;;;;;;;6356152;22;20006;-76
2021/03/17 01:00:39;;;;;;;3.90;2.33;;;;;;;;;;6348314;22;20010;-76
2021/03/17 01:03:05;;;;;;;4.20;2.20;;;;;;;;;;6348205;22;19995;-76
2021/03/17 01:05:32;;;;;;;3.50;2.03;;;;;;;;;;6357344;22;20082;-76
2021/03/17 01:07:58;;;;;;;5.57;2.23;;;;;;;;;;6373345;22;20007;-77
2021/03/17 01:10:31;;;;;;;4.27;1.87;;;;;;;;;;6366486;22;20006;-76
2021/03/17 01:12:57;;;;;;;10.40;1.70;;;;;;;;;;6344933;22;20041;-77
2021/03/17 01:15:23;;;;;;;4.90;1.60;;;;;;;;;;6342142;22;20003;-76
2021/03/17 01:17:49;;;;;;;6.20;1.50;;;;;;;;;;6368956;22;20007;-76
2021/03/17 01:20:16;;;;;;;2.83;1.57;;;;;;;;;;6372937;22;20007;-76
2021/03/17 01:22:42;;;;;;;5.30;1.00;;;;;;;;;;6346669;22;20011;-76
2021/03/17 01:25:10;;;;;;;1.47;0.93;;;;;;;;;;6376003;22;20003;-76
2021/03/17 01:27:36;;;;;;;4.30;1.23;;;;;;;;;;6354144;22;20017;-76
2021/03/17 01:30:03;;;;;;;4.30;0.87;;;;;;;;;;6346668;22;20011;-76
2021/03/17 01:32:29;;;;;;;3.50;1.10;;;;;;;;;;6381490;22;20064;-76
2021/03/17 01:34:54;;;;;;;3.53;0.70;;;;;;;;;;6345227;22;20010;-76
2021/03/17 01:37:20;;;;;;;4.83;1.00;;;;;;;;;;6345520;22;20021;-77
2021/03/17 01:39:46;;;;;;;8.53;0.60;;;;;;;;;;6347073;22;20098;-76
2021/03/17 01:42:12;;;;;;;3.40;0.70;;;;;;;;;;6372115;22;20015;-76
2021/03/17 01:44:39;;;;;;;2.73;0.63;;;;;;;;;;6346276;22;20011;-76
2021/03/17 01:47:05;;;;;;;5.23;0.50;;;;;;;;;;6372269;22;20006;-76
2021/03/17 01:49:31;;;;;;;4.77;0.60;;;;;;;;;;6347952;22;20018;-77
2021/03/17 01:51:57;;;;;;;4.70;0.70;;;;;;;;;;6375763;22;20026;-76
2021/03/17 01:54:23;;;;;;;1.33;0.60;;;;;;;;;;6374439;22;20062;-76
2021/03/17 01:56:49;;;;;;;4.17;0.50;;;;;;;;;;6350815;22;20018;-76
2021/03/17 01:59:15;;;;;;;2.63;0.43;;;;;;;;;;6354161;22;20018;-76
2021/03/17 02:01:41;;;;;;;3.80;0.60;;;;;;;;;;6383259;22;20003;-78
2021/03/17 02:04:07;;;;;;;1.43;0.40;;;;;;;;;;6357774;22;20045;-77
2021/03/17 02:06:33;;;;;;;2.27;0.70;;;;;;;;;;6359082;22;20106;-77
2021/03/17 02:08:59;;;;;;;2.90;0.50;;;;;;;;;;6354741;22;20003;-77
2021/03/17 02:11:25;;;;;;;1.77;0.40;;;;;;;;;;6381564;22;20098;-77
2021/03/17 02:13:51;;;;;;;2.90;0.40;;;;;;;;;;6356197;22;20002;-76
2021/03/17 02:16:18;;;;;;;2.50;0.70;;;;;;;;;;6354870;22;20007;-76
2021/03/17 02:19:02;;;;;;;3.23;0.40;;;;;;;;;;6380525;22;20009;-76
2021/03/17 02:21:47;;;;;;;3.58;0.50;;;;;;;;;;6376093;22;20011;-76
2021/03/17 02:24:21;;;;;;;2.40;0.30;;;;;;;;;;6376312;22;20060;-76
2021/03/17 02:27:02;;;;;;;3.73;0.30;;;;;;;;;;6377411;22;20018;-76
2021/03/17 02:29:34;;;;;;;4.30;0.60;;;;;;;;;;6374595;22;20007;-76
2021/03/17 02:32:29;;;;;;;5.70;1.60;;;;;;;;;;6352864;22;20049;-76
2021/03/17 02:34:56;;;;;;;4.28;1.00;;;;;;;;;;6374559;22;20052;-76
2021/03/17 02:37:26;;;;;;;6.37;0.70;;;;;;;;;;6374376;22;20015;-76
2021/03/17 02:39:56;;;;;;;4.27;0.50;;;;;;;;;;6351119;22;19999;-76
2021/03/17 02:42:24;;;;;;;2.53;0.50;;;;;;;;;;6378878;22;20011;-76
2021/03/17 02:45:09;;;;;;;4.70;0.73;;;;;;;;;;6354912;22;20086;-77
2021/03/17 02:47:43;;;;;;;5.35;0.90;;;;;;;;;;6373175;22;20054;-77
2021/03/17 02:50:10;;;;;;;5.93;0.85;;;;;;;;;;6373498;22;20147;-76
2021/03/17 02:52:39;;;;;;;5.90;0.70;;;;;;;;;;6342775;22;20048;-76
2021/03/17 02:55:06;;;;;;;9.33;1.00;;;;;;;;;;6370667;22;20002;-77
2021/03/17 02:57:34;;;;;;;6.67;0.83;;;;;;;;;;6343113;22;20069;-76
2021/03/17 03:00:00;;;;;;;6.97;0.80;;;;;;;;;;6370082;22;20003;-76
2021/03/17 03:02:27;;;;;;;6.20;0.90;;;;;;;;;;6368765;22;20093;-76
2021/03/17 03:04:53;;;;;;;9.43;0.70;;;;;;;;;;6342100;22;20011;-77
2021/03/17 03:07:21;;;;;;;3.27;0.40;;;;;;;;;;6343036;22;20427;-77
2021/03/17 03:09:47;;;;;;;2.33;0.57;;;;;;;;;;6367918;22;20080;-77
2021/03/17 03:12:13;;;;;;;2.00;0.50;;;;;;;;;;6368734;22;20022;-76
2021/03/17 03:14:40;;;;;;;4.37;0.73;;;;;;;;;;6372122;22;20011;-76
2021/03/17 03:17:07;;;;;;;1.70;0.47;;;;;;;;;;6347977;22;20006;-77
2021/03/17 03:19:35;;;;;;;3.73;0.40;;;;;;;;;;6347868;22;19999;-76
2021/03/17 03:22:02;;;;;;;2.33;0.60;;;;;;;;;;6373295;22;20002;-75
2021/03/17 03:24:28;;;;;;;2.87;0.57;;;;;;;;;;6374455;22;20006;-76
2021/03/17 03:26:58;;;;;;;1.70;0.47;;;;;;;;;;6347558;22;20070;-76
2021/03/17 03:29:25;;;;;;;4.53;0.80;;;;;;;;;;6347202;22;20020;-76
2021/03/17 03:31:52;;;;;;;3.73;0.57;;;;;;;;;;6373539;22;20007;-76
2021/03/17 03:34:18;;;;;;;3.20;0.97;;;;;;;;;;6370023;22;20064;-77
2021/03/17 03:36:44;;;;;;;7.27;0.70;;;;;;;;;;6346185;22;20064;-77
2021/03/17 03:39:14;;;;;;;4.00;0.53;;;;;;;;;;6370829;22;20026;-77
2021/03/17 03:41:40;;;;;;;2.17;0.40;;;;;;;;;;6373618;22;20015;-77
2021/03/17 03:44:07;;;;;;;5.73;0.83;;;;;;;;;;6373894;22;20021;-76
2021/03/17 03:46:34;;;;;;;3.03;0.40;;;;;;;;;;6349827;22;20002;-77
2021/03/17 03:49:01;;;;;;;3.70;0.60;;;;;;;;;;6348918;22;20028;-76
2021/03/17 03:51:27;;;;;;;1.83;0.43;;;;;;;;;;6377363;22;20022;-76
2021/03/17 03:54:02;;;;;;;4.97;0.47;;;;;;;;;;6375872;22;20006;-76
2021/03/17 03:56:39;;;;;;;1.17;0.27;;;;;;;;;;6374102;22;20011;-76
2021/03/17 03:59:11;;;;;;;7.50;0.50;;;;;;;;;;6369162;22;20074;-76
2021/03/17 04:01:40;;;;;;;5.83;0.67;;;;;;;;;;6344632;22;19995;-77
2021/03/17 04:04:09;;;;;;;4.43;0.50;;;;;;;;;;6370060;22;20344;-76
2021/03/17 04:06:36;;;;;;;2.90;0.70;;;;;;;;;;6370000;22;20424;-76
2021/03/17 04:09:03;;;;;;;7.17;1.10;;;;;;;;;;6345087;22;20006;-77
2021/03/17 04:11:29;;;;;;;6.43;0.90;;;;;;;;;;6370466;22;20015;-75
2021/03/17 04:13:56;;;;;;;4.30;0.73;;;;;;;;;;6343202;22;20034;-76
2021/03/17 04:16:24;;;;;;;7.33;0.87;;;;;;;;;;6343839;22;20019;-76
2021/03/17 04:18:50;;;;;;;9.53;1.10;;;;;;;;;;6369332;22;20056;-76
2021/03/17 04:21:18;;;;;;;11.60;1.03;;;;;;;;;;6370269;22;20090;-76
2021/03/17 04:23:46;;;;;;;4.80;0.87;;;;;;;;;;6370734;22;20006;-76
2021/03/17 04:26:12;;;;;;;4.33;1.00;;;;;;;;;;6369403;22;20363;-77
2021/03/17 04:28:40;;;;;;;6.00;1.20;;;;;;;;;;6343809;22;20093;-76
2021/03/17 04:31:06;;;;;;;9.87;1.23;;;;;;;;;;6371655;22;20432;-76
2021/03/17 04:33:33;;;;;;;4.23;0.90;;;;;;;;;;6342809;22;19995;-76
2021/03/17 04:36:00;;;;;;;4.93;0.90;;;;;;;;;;6367926;22;20097;-76
2021/03/17 04:38:26;;;;;;;6.40;0.93;;;;;;;;;;6368287;22;20026;-77
2021/03/17 04:40:53;;;;;;;7.00;0.67;;;;;;;;;;6344138;22;20063;-77
2021/03/17 04:43:19;;;;;;;4.00;0.60;;;;;;;;;;6369159;22;20007;-76
2021/03/17 04:45:47;;;;;;;3.60;0.50;;;;;;;;;;6342023;22;20490;-76
2021/03/17 04:48:13;;;;;;;4.17;0.50;;;;;;;;;;6369015;22;20089;-76
2021/03/17 04:50:40;;;;;;;4.77;1.10;;;;;;;;;;6369490;22;20064;-76
2021/03/17 04:53:08;;;;;;;2.93;0.50;;;;;;;;;;6345727;22;20029;-76
2021/03/17 04:55:34;;;;;;;8.40;0.60;;;;;;;;;;6343987;22;20007;-77
2021/03/17 04:58:00;;;;;;;4.10;0.50;;;;;;;;;;6369276;22;20007;-76
2021/03/17 05:00:27;;;;;;;3.07;0.70;;;;;;;;;;6369078;22;20014;-75
2021/03/17 05:03:00;;;;;;;6.83;0.73;;;;;;;;;;6344196;22;19998;-76
2021/03/17 05:05:28;;;;;;;4.20;0.70;;;;;;;;;;6372171;22;20003;-77
2021/03/17 05:07:54;;;;;;;2.27;0.47;;;;;;;;;;6369680;22;20003;-76
2021/03/17 05:10:21;;;;;;;4.27;0.80;;;;;;;;;;6342996;22;20308;-76
2021/03/17 05:12:47;;;;;;;5.97;0.73;;;;;;;;;;6367200;22;20015;-76
2021/03/17 05:15:14;;;;;;;3.03;0.60;;;;;;;;;;6368855;22;20041;-76
2021/03/17 05:17:40;;;;;;;4.27;0.60;;;;;;;;;;6344064;22;19999;-76
2021/03/17 05:20:09;;;;;;;3.50;0.40;;;;;;;;;;6366403;22;20018;-76
2021/03/17 05:22:36;;;;;;;8.77;0.77;;;;;;;;;;6366753;22;20094;-76
2021/03/17 05:25:05;;;;;;;6.67;0.87;;;;;;;;;;6366530;22;20011;-76
2021/03/17 05:27:32;;;;;;;16.17;2.80;;;;;;;;;;6342332;22;20003;-76
2021/03/17 05:29:59;;;;;;;9.27;0.90;;;;;;;;;;6366820;22;20006;-76
2021/03/17 05:32:25;;;;;;;6.20;0.80;;;;;;;;;;6342410;22;19995;-76
2021/03/17 05:34:59;;;;;;;2.57;0.40;;;;;;;;;;6340845;22;20052;-77
2021/03/17 05:37:25;;;;;;;5.37;1.13;;;;;;;;;;6366817;22;20018;-76
2021/03/17 05:39:52;;;;;;;3.70;0.50;;;;;;;;;;6341963;22;20329;-76
2021/03/17 05:42:18;;;;;;;4.33;0.50;;;;;;;;;;6367133;22;20068;-76
2021/03/17 05:44:44;;;;;;;2.37;0.70;;;;;;;;;;6368508;22;20013;-77
2021/03/17 05:47:11;;;;;;;6.57;0.80;;;;;;;;;;6343769;22;20010;-76
2021/03/17 05:49:38;;;;;;;2.90;1.07;;;;;;;;;;6372219;22;20007;-75
2021/03/17 05:52:06;;;;;;;3.07;0.50;;;;;;;;;;6351533;22;20011;-76
2021/03/17 05:54:32;;;;;;;3.87;0.60;;;;;;;;;;6368431;22;20336;-76
2021/03/17 05:56:58;;;;;;;3.43;0.57;;;;;;;;;;6365720;22;20015;-77
2021/03/17 05:59:25;;;;;;;6.80;0.67;;;;;;;;;;6341142;22;19999;-76
2021/03/17 06:01:51;;;;;;;0.77;0.30;;;;;;;;;;6368086;22;20007;-76
2021/03/17 06:04:17;;;;;;;4.43;0.57;;;;;;;;;;6343254;22;20002;-77
2021/03/17 06:06:44;;;;;;;3.80;0.40;;;;;;;;;;6368208;22;20007;-76
2021/03/17 06:09:11;;;;;;;3.47;0.57;;;;;;;;;;6345739;22;20074;-76
2021/03/17 06:11:37;;;;;;;6.80;0.60;;;;;;;;;;6371353;22;20514;-76
2021/03/17 06:14:07;;;;;;;4.57;0.77;;;;;;;;;;6374975;22;20006;-76
2021/03/17 06:16:34;;;;;;;1.53;0.40;;;;;;;;;;6349550;22;20056;-76
2021/03/17 06:19:03;;;;;;;1.07;0.40;;;;;;;;;;6345023;22;20011;-76
2021/03/17 06:21:29;;;;;;;1.23;0.40;;;;;;;;;;6370016;22;20009;-76
2021/03/17 06:23:56;;;;;;;8.50;0.77;;;;;;;;;;6344710;22;20030;-77
2021/03/17 06:26:23;;;;;;;1.53;0.40;;;;;;;;;;6370420;22;20433;-75
2021/03/17 06:28:50;;;;;;;2.70;0.40;;;;;;;;;;6368525;22;20003;-76
2021/03/17 06:31:16;;;;;;;8.90;1.30;;;;;;;;;;6340733;22;20012;-76
2021/03/17 06:33:42;;;;;;;5.93;0.90;;;;;;;;;;6342126;22;19994;-76
2021/03/17 06:36:09;;;;;;;7.77;1.03;;;;;;;;;;6341080;22;20045;-75
2021/03/17 06:38:35;;;;;;;5.93;1.43;;;;;;;;;;6369045;22;20030;-76
2021/03/17 06:41:01;;;;;;;7.27;1.13;;;;;;;;;;6368814;22;20007;-76
2021/03/17 06:43:36;;;;;;;5.77;1.03;;;;;;;;;;6342330;22;20011;-76
2021/03/17 06:46:03;;;;;;;11.53;1.33;;;;;;;;;;6344688;22;20026;-76
2021/03/17 06:48:29;;;;;;;10.63;1.77;;;;;;;;;;6369824;22;20011;-76
2021/03/17 06:51:06;;;;;;;6.20;1.27;;;;;;;;;;6345650;22;20454;-77
2021/03/17 06:53:40;;;;;;;3.37;0.70;;;;;;;;;;6373689;22;20094;-75
2021/03/17 06:56:16;;;;;;;2.20;0.80;;;;;;;;;;6372264;22;20448;-77
2021/03/17 06:58:43;;;;;;;1.00;0.50;;;;;;;;;;6371446;22;20010;-76
2021/03/17 07:01:31;;;;;;;0.93;0.30;;;;;;;;;;6367468;22;20432;-76
2021/03/17 07:03:58;;;;;;;2.60;0.67;;;;;;;;;;6340377;22;20412;-77
2021/03/17 07:06:24;;;;;;;2.30;0.60;;;;;;;;;;6366048;22;20007;-76
2021/03/17 07:08:51;;;;;;;2.80;0.50;;;;;;;;;;6340042;22;20077;-77
2021/03/17 07:11:24;;;;;;;2.23;0.70;;;;;;;;;;6366277;22;20306;-76
2021/03/17 07:13:54;;;;;;;1.98;0.45;;;;;;;;;;6366407;22;20009;-76
2021/03/17 07:16:38;;;;;;;2.33;0.50;;;;;;;;;;6366675;22;20007;-76
2021/03/17 07:19:05;;;;;;;4.80;0.50;;;;;;;;;;6367528;22;20003;-77
2021/03/17 07:21:35;;;;;;;2.37;0.70;;;;;;;;;;6368380;22;20006;-76
2021/03/17 07:24:02;;;;;;;3.53;1.20;;;;;;;;;;6369540;22;20026;-76
2021/03/17 07:26:32;;;;;;;4.20;1.23;;;;;;;;;;6371594;22;20006;-76
2021/03/17 07:29:04;;;;;;;5.10;1.30;;;;;;;;;;6346147;22;20425;-77
2021/03/17 07:31:30;;;;;;;3.97;1.13;;;;;;;;;;6366678;22;20418;-77
2021/03/17 07:34:09;;;;;;;3.43;1.17;;;;;;;;;;6340002;22;20022;-77
2021/03/17 07:36:41;;;;;;;8.37;0.90;;;;;;;;;;6366011;22;20011;-77
2021/03/17 07:39:11;;;;;;;8.97;1.30;;;;;;;;;;6366544;22;20017;-76
2021/03/17 07:41:38;;;;;;;4.07;0.90;;;;;;;;;;6366521;22;20002;-76
2021/03/17 07:44:06;;;;;;;5.60;2.00;;;;;;;;;;6340419;22;20018;-75
2021/03/17 07:46:33;;;;;;;3.13;1.00;;;;;;;;;;6342082;22;20408;-76
2021/03/17 07:48:59;;;;;;;11.03;2.80;;;;;;;;;;6367408;22;20003;-76
2021/03/17 07:51:26;;;;;;;6.83;1.43;;;;;;;;;;6367592;22;20380;-75
2021/03/17 07:53:54;;;;;;;8.53;1.77;;;;;;;;;;6342590;22;20011;-76
2021/03/17 07:56:25;;;;;;;6.47;1.20;;;;;;;;;;6370018;22;20011;-76
2021/03/17 07:58:52;;;;;;;4.20;1.37;;;;;;;;;;6369229;22;20009;-76
2021/03/17 08:01:19;;;;;;;5.07;0.93;;;;;;;;;;6343274;22;19995;-76
2021/03/17 08:03:46;;;;;;;4.20;1.53;;;;;;;;;;6369108;22;20086;-76
2021/03/17 08:06:14;;;;;;;5.33;1.73;;;;;;;;;;6369428;22;20011;-77
2021/03/17 08:08:41;;;;;;;3.73;1.10;;;;;;;;;;6370516;22;20059;-76
2021/03/17 08:11:07;;;;;;;4.67;1.27;;;;;;;;;;6370718;22;20009;-77
2021/03/17 08:13:35;;;;;;;4.40;0.93;;;;;;;;;;6369830;22;20041;-75
2021/03/17 08:16:01;;;;;;;4.30;0.70;;;;;;;;;;6376115;22;20441;-76
2021/03/17 08:18:31;;;;;;;4.40;0.90;;;;;;;;;;6349639;22;20098;-76
2021/03/17 08:20:57;;;;;;;6.33;0.80;;;;;;;;;;6379375;22;20003;-76
2021/03/17 08:23:40;;;;;;;10.10;1.13;;;;;;;;;;6377079;22;20006;-77
2021/03/17 08:26:07;;;;;;;7.00;0.73;;;;;;;;;;6355000;22;19998;-77
2021/03/17 08:28:45;;;;;;;7.33;0.70;;;;;;;;;;6355085;22;20030;-75
2021/03/17 08:31:11;;;;;;;5.97;1.30;;;;;;;;;;6357108;22;19999;-77
2021/03/17 08:33:38;;;;;;;8.50;1.30;;;;;;;;;;6356758;22;19998;-77
2021/03/17 08:36:10;;;;;;;7.13;1.37;;;;;;;;;;6355495;22;20070;-75
2021/03/17 08:38:51;;;;;;;7.10;1.30;;;;;;;;;;6378717;22;20011;-77
2021/03/17 08:41:37;;;;;;;7.87;1.33;;;;;;;;;;6383406;22;20105;-76
2021/03/17 08:44:23;;;;;;;11.00;1.67;;;;;;;;;;6286488;22;20094;-76
2021/03/17 08:46:49;;;;;;;17.30;1.30;;;;;;;;;;6371326;22;20018;-75
2021/03/17 08:49:35;;;;;;;8.10;1.10;;;;;;;;;;6373157;22;20465;-76
2021/03/17 08:52:01;;;;;;;8.83;1.23;;;;;;;;;;6344491;22;20011;-76
2021/03/17 08:54:33;;;;;;;7.33;1.00;;;;;;;;;;6339421;22;20003;-75
2021/03/17 08:57:00;;;;;;;4.07;1.10;;;;;;;;;;6341218;22;20072;-78
2021/03/17 08:59:45;;;;;;;6.97;1.20;;;;;;;;;;6339565;22;20015;-75
2021/03/17 09:02:21;;;;;;;7.28;0.82;;;;;;;;;;6365764;22;20007;-75
2021/03/17 09:04:51;;;;;;;6.23;0.60;;;;;;;;;;6339165;22;20028;-75
2021/03/17 09:07:18;;;;;;;5.73;0.90;;;;;;;;;;6365351;22;20015;-75
2021/03/17 09:09:54;;;;;;;10.73;0.97;;;;;;;;;;6339749;22;20476;-75
2021/03/17 09:12:26;;;;;;;2.30;0.30;;;;;;;;;;6366200;22;20014;-75
2021/03/17 09:15:13;;;;;;;4.03;0.60;;;;;;;;;;6368882;22;20034;-77
2021/03/17 09:17:48;;;;;;;6.00;1.00;;;;;;;;;;6368913;22;20011;-77
2021/03/17 09:20:25;;;;;;;8.67;0.70;;;;;;;;;;6343514;22;20072;-78
2021/03/17 09:23:00;;;;;;;7.30;1.00;;;;;;;;;;6341382;22;19999;-75
2021/03/17 09:25:26;;;;;;;8.13;1.20;;;;;;;;;;6367735;22;20044;-75
2021/03/17 09:27:54;;;;;;;11.20;1.50;;;;;;;;;;6371676;22;20048;-74
2021/03/17 09:30:22;;;;;;;6.43;1.20;;;;;;;;;;6368672;22;20140;-76
2021/03/17 09:32:48;;;;;;;8.70;0.93;;;;;;;;;;6345834;22;20021;-76
2021/03/17 09:35:15;;;;;;;3.77;0.60;;;;;;;;;;6371376;22;20114;-76
2021/03/17 09:37:41;;;;;;;6.03;0.93;;;;;;;;;;6372271;22;20374;-76
2021/03/17 09:40:09;;;;;;;6.47;0.97;;;;;;;;;;6343296;22;20011;-75
2021/03/17 09:42:36;;;;;;;8.70;0.90;;;;;;;;;;6342974;22;20014;-75
2021/03/17 09:45:03;;;;;;;6.27;0.63;;;;;;;;;;6342521;22;19999;-76
2021/03/17 09:47:30;;;;;;;7.00;1.10;;;;;;;;;;6343336;22;19998;-76
2021/03/17 09:49:56;;;;;;;6.60;1.03;;;;;;;;;;6342704;22;20011;-75
2021/03/17 09:52:23;;;;;;;13.07;3.00;;;;;;;;;;6369338;22;20014;-75
2021/03/17 09:54:49;;;;;;;5.23;0.67;;;;;;;;;;6349586;22;20010;-76
2021/03/17 09:57:15;;;;;;;9.67;1.40;;;;;;;;;;6374036;22;20048;-75
2021/03/17 09:59:42;;;;;;;5.73;0.93;;;;;;;;;;6344259;22;19998;-76
2021/03/17 10:02:22;;;;;;;8.03;1.73;;;;;;;;;;6367792;22;20071;-75
2021/03/17 10:04:49;;;;;;;3.97;0.60;;;;;;;;;;6343402;22;20068;-75
2021/03/17 10:07:17;;;;;;;7.90;1.70;;;;;;;;;;6367011;22;20333;-76
2021/03/17 10:09:43;;;;;;;5.47;0.70;;;;;;;;;;6342185;22;19999;-76
2021/03/17 10:12:13;;;;;;;11.30;0.97;;;;;;;;;;6340620;22;20056;-76
2021/03/17 10:14:40;;;;;;;7.30;1.00;;;;;;;;;;6366854;22;20007;-75
2021/03/17 10:17:08;;;;;;;4.80;1.07;;;;;;;;;;6366896;22;20356;-76
2021/03/17 10:19:34;;;;;;;3.93;0.53;;;;;;;;;;6367349;22;20006;-76
2021/03/17 10:22:01;;;;;;;8.90;1.00;;;;;;;;;;6341776;22;20007;-76
2021/03/17 10:24:31;;;;;;;6.47;0.87;;;;;;;;;;6368608;22;20003;-76
2021/03/17 10:26:57;;;;;;;2.63;0.90;;;;;;;;;;6370323;22;20010;-75
2021/03/17 10:29:23;;;;;;;8.83;1.57;;;;;;;;;;6348605;22;20003;-75
2021/03/17 10:31:53;;;;;;;15.07;3.07;;;;;;;;;;6366882;22;20007;-76
2021/03/17 10:34:21;;;;;;;8.43;1.10;;;;;;;;;;6367297;22;20010;-76
2021/03/17 10:36:51;;;;;;;8.03;1.30;;;;;;;;;;6367258;22;20015;-75
2021/03/17 10:39:17;;;;;;;15.13;1.00;;;;;;;;;;6346031;22;20071;-74
2021/03/17 10:41:45;;;;;;;11.20;1.00;;;;;;;;;;6343176;22;20015;-76
2021/03/17 10:44:21;;;;;;;8.97;1.80;;;;;;;;;;6372755;22;20003;-76
2021/03/17 10:47:06;;;;;;;4.73;0.90;;;;;;;;;;6374446;22;20010;-76
2021/03/17 10:49:34;;;;;;;17.40;1.00;;;;;;;;;;6368778;22;20002;-76
2021/03/17 10:52:01;;;;;;;6.73;1.17;;;;;;;;;;6366755;22;20019;-76
2021/03/17 10:54:35;;;;;;;4.07;0.80;;;;;;;;;;6366905;22;20421;-76
2021/03/17 10:57:02;;;;;;;6.03;1.03;;;;;;;;;;6372482;22;20018;-77
2021/03/17 10:59:29;;;;;;;12.87;1.00;;;;;;;;;;6343475;22;20007;-76
2021/03/17 11:02:13;;;;;;;16.70;1.70;;;;;;;;;;6346557;22;20498;-76
2021/03/17 11:04:39;;;;;;;8.18;1.10;;;;;;;;;;6370934;22;20333;-76
2021/03/17 11:07:05;;;;;;;5.13;0.77;;;;;;;;;;6348835;22;20022;-76
2021/03/17 11:09:41;;;;;;;8.63;1.90;;;;;;;;;;6352099;22;20348;-76
2021/03/17 11:12:13;;;;;;;10.67;1.30;;;;;;;;;;6350111;22;20019;-77
2021/03/17 11:14:39;;;;;;;6.17;0.70;;;;;;;;;;6345064;22;20018;-76
2021/03/17 11:17:08;;;;;;;8.80;1.50;;;;;;;;;;6342368;22;20011;-77
2021/03/17 11:19:34;;;;;;;8.73;1.30;;;;;;;;;;6341958;22;20007;-75
2021/03/17 11:22:00;;;;;;;5.67;1.00;;;;;;;;;;6344254;22;20011;-76
2021/03/17 11:24:27;;;;;;;8.00;1.60;;;;;;;;;;6371034;22;20007;-76
2021/03/17 11:26:53;;;;;;;6.00;1.00;;;;;;;;;;6344726;22;20022;-76
2021/03/17 11:29:20;;;;;;;10.80;1.70;;;;;;;;;;6342026;22;20017;-75
2021/03/17 11:31:47;;;;;;;10.77;1.73;;;;;;;;;;6342727;22;19994;-76
2021/03/17 11:34:13;;;;;;;9.53;1.43;;;;;;;;;;6366873;22;20007;-76
2021/03/17 11:36:40;;;;;;;9.73;1.13;;;;;;;;;;6366385;22;20141;-76
2021/03/17 11:39:11;;;;;;;16.17;1.47;;;;;;;;;;6367700;22;20006;-77
2021/03/17 11:41:37;;;;;;;12.83;1.73;;;;;;;;;;6343079;22;20011;-77
2021/03/17 11:44:03;;;;;;;9.33;1.00;;;;;;;;;;6342521;22;20332;-77
2021/03/17 11:46:30;;;;;;;11.77;1.57;;;;;;;;;;6346356;22;20015;-77
2021/03/17 11:48:56;;;;;;;9.17;1.20;;;;;;;;;;6371795;22;20421;-76
2021/03/17 11:51:22;;;;;;;7.40;1.27;;;;;;;;;;6341818;22;20057;-77
2021/03/17 11:53:49;;;;;;;11.37;1.30;;;;;;;;;;6342799;22;20011;-76
2021/03/17 11:56:17;;;;;;;9.33;1.50;;;;;;;;;;6370886;22;20017;-77
2021/03/17 11:58:43;;;;;;;9.53;1.37;;;;;;;;;;6371502;22;20010;-77
2021/03/17 12:01:10;;;;;;;11.17;1.43;;;;;;;;;;6371690;22;20006;-76
2021/03/17 12:03:36;;;;;;;11.93;3.10;;;;;;;;;;6345510;22;20026;-77
2021/03/17 12:06:03;;;;;;;9.73;1.30;;;;;;;;;;6369481;22;20007;-77
2021/03/17 12:08:29;;;;;;;11.80;1.40;;;;;;;;;;6371922;22;20034;-78
2021/03/17 12:10:55;;;;;;;20.77;1.63;;;;;;;;;;6348853;22;20009;-77
2021/03/17 12:13:21;;;;;;;14.77;2.07;;;;;;;;;;6374062;22;20018;-77
2021/03/17 12:15:48;;;;;;;9.20;0.80;;;;;;;;;;6350790;22;20110;-78
2021/03/17 12:18:14;;;;;;;13.07;1.50;;;;;;;;;;6348423;22;20059;-78
2021/03/17 12:20:41;;;;;;;9.47;1.30;;;;;;;;;;6373212;22;20003;-77
2021/03/17 12:23:07;;;;;;;9.53;1.33;;;;;;;;;;6349881;22;20006;-76
2021/03/17 12:25:33;;;;;;;7.00;0.70;;;;;;;;;;6375530;22;20470;-79
2021/03/17 12:27:59;;;;;;;5.80;1.00;;;;;;;;;;6349215;22;20007;-78
2021/03/17 12:30:25;;;;;;;7.87;2.03;;;;;;;;;;6349983;22;20085;-78
2021/03/17 12:32:52;;;;;;;10.67;1.97;;;;;;;;;;6376827;22;20335;-77
2021/03/17 12:35:18;;;;;;;8.37;1.07;;;;;;;;;;6375147;22;20011;-78
2021/03/17 12:37:46;;;;;;;12.10;1.73;;;;;;;;;;6350144;22;20022;-78
2021/03/17 12:40:14;;;;;;;8.37;1.40;;;;;;;;;;6377204;22;20014;-77
2021/03/17 12:42:40;;;;;;;15.37;2.30;;;;;;;;;;6375895;22;20041;-77
2021/03/17 12:45:07;;;;;;;5.83;0.90;;;;;;;;;;6348706;22;20010;-77
2021/03/17 12:47:34;;;;;;;12.83;1.77;;;;;;;;;;6375599;22;20007;-77
2021/03/17 12:50:00;;;;;;;8.40;0.90;;;;;;;;;;6350488;22;20025;-76
2021/03/17 12:55:29;;;;;;;12.40;1.40;;;;;;;;;;6352373;22;20082;-77
2021/03/17 12:57:56;;;;;;;9.57;1.63;;;;;;;;;;6349550;22;20006;-76
2021/03/17 13:00:23;;;;;;;8.93;1.30;;;;;;;;;;6348126;22;20003;-76
2021/03/17 13:02:49;;;;;;;10.60;1.27;;;;;;;;;;6373445;22;20007;-75
2021/03/17 13:05:16;;;;;;;12.33;1.40;;;;;;;;;;6374393;22;20007;-77
2021/03/17 13:07:42;;;;;;;9.60;1.20;;;;;;;;;;6348104;22;20344;-75
2021/03/17 13:10:16;;;;;;;8.10;1.53;;;;;;;;;;6347814;22;20321;-77
2021/03/17 13:12:43;;;;;;;11.77;2.13;;;;;;;;;;6372790;22;20015;-76
2021/03/17 13:15:09;;;;;;;14.83;2.17;;;;;;;;;;6376244;22;20008;-76
2021/03/17 13:17:35;;;;;;;9.17;1.23;;;;;;;;;;6354523;22;20014;-76
2021/03/17 13:20:01;;;;;;;10.93;1.83;;;;;;;;;;6354967;22;20022;-77
2021/03/17 13:22:28;;;;;;;13.30;2.53;;;;;;;;;;6353056;22;20003;-77
2021/03/17 13:24:55;;;;;;;11.13;2.03;;;;;;;;;;6372825;22;20014;-77
2021/03/17 13:27:21;;;;;;;10.50;1.53;;;;;;;;;;6378700;22;20014;-76
2021/03/17 13:29:47;;;;;;;17.17;2.50;;;;;;;;;;6376728;22;20003;-76
2021/03/17 13:32:13;;;;;;;9.70;1.77;;;;;;;;;;6355065;22;20011;-76
2021/03/17 13:34:39;;;;;;;11.00;1.50;;;;;;;;;;6360458;22;20005;-79
2021/03/17 13:37:06;;;;;;;7.85;1.77;;;;;;;;;;6353676;22;20009;-77
2021/03/17 13:39:32;;;;;;;13.95;1.60;;;;;;;;;;6354094;22;20007;-78
2021/03/17 13:41:58;;;;;;;11.13;1.38;;;;;;;;;;6346992;22;20044;-76
2021/03/17 13:44:24;;;;;;;9.68;1.70;;;;;;;;;;6372388;22;20010;-77
2021/03/17 13:46:50;;;;;;;11.32;1.80;;;;;;;;;;6349043;22;20114;-77
2021/03/17 13:49:16;;;;;;;7.13;1.37;;;;;;;;;;6373475;22;20010;-77
2021/03/17 13:51:42;;;;;;;9.77;1.58;;;;;;;;;;6349077;22;20105;-78
2021/03/17 13:54:08;;;;;;;10.05;1.30;;;;;;;;;;6374446;22;20010;-76
2021/03/17 13:56:34;;;;;;;11.38;1.90;;;;;;;;;;6349922;22;20019;-77
2021/03/17 13:59:00;;;;;;;11.65;1.60;;;;;;;;;;6349031;22;20100;-77
2021/03/17 14:01:26;;;;;;;11.30;1.58;;;;;;;;;;6378841;22;20071;-77
2021/03/17 14:03:55;;;;;;;8.95;1.75;;;;;;;;;;6346942;22;20432;-77
2021/03/17 14:06:21;;;;;;;10.27;1.88;;;;;;;;;;6344898;22;20493;-77
2021/03/17 14:08:47;;;;;;;9.18;1.65;;;;;;;;;;6346512;22;20007;-78
2021/03/17 14:11:13;;;;;;;7.97;1.50;;;;;;;;;;6348091;22;19999;-77
2021/03/17 14:13:39;;;;;;;9.68;1.27;;;;;;;;;;6375030;22;20014;-78
2021/03/17 14:16:05;;;;;;;7.50;1.10;;;;;;;;;;6349796;22;20034;-78
2021/03/17 14:18:31;;;;;;;7.28;1.38;;;;;;;;;;6357293;22;20015;-78
2021/03/17 14:20:57;;;;;;;12.20;1.50;;;;;;;;;;6384788;22;20015;-78
2021/03/17 14:23:23;;;;;;;11.20;1.80;;;;;;;;;;6385143;22;20002;-79
2021/03/17 14:25:49;;;;;;;13.75;1.45;;;;;;;;;;6355460;22;20007;-78
2021/03/17 14:28:15;;;;;;;10.45;1.42;;;;;;;;;;6350960;22;20007;-78
2021/03/17 14:30:41;;;;;;;9.82;1.58;;;;;;;;;;6350363;22;20129;-78
2021/03/17 14:33:08;;;;;;;15.70;2.33;;;;;;;;;;6343875;22;20196;-78
2021/03/17 14:35:34;;;;;;;8.50;1.58;;;;;;;;;;6345767;22;20357;-79
2021/03/17 14:38:01;;;;;;;10.70;1.88;;;;;;;;;;6369090;22;20015;-78
2021/03/17 14:40:30;;;;;;;10.85;1.60;;;;;;;;;;6341458;22;20010;-79
2021/03/17 14:42:56;;;;;;;8.43;1.73;;;;;;;;;;6341803;22;20464;-77
2021/03/17 14:45:22;;;;;;;12.48;2.42;;;;;;;;;;6343491;22;20022;-78
2021/03/17 14:47:48;;;;;;;5.18;1.38;;;;;;;;;;6369815;22;20071;-78
2021/03/17 14:50:15;;;;;;;10.52;2.13;;;;;;;;;;6349473;22;20006;-78